Time,TemperatureF,DewpointF,PressureIn,WindDirection,WindDirectionDegrees,WindSpeedMPH,WindSpeedGustMPH,Humidity,HourlyPrecipIn,Conditions,Clouds,dailyrainin,SolarRadiationWatts/m^2,SoftwareType,DateUTC
2013-08-01 00:22:00,58.0,58.0,29.99,North,10,3.0,6.0,100,0.00,,,0.00,1.000000,,2013-08-01 07:22:00,
2013-08-01 00:32:00,58.0,58.0,29.99,North,10,3.0,6.0,100,0.00,,,0.00,1.000000,,2013-08-01 07:32:00,
2013-08-01 00:43:00,58.0,58.0,29.99,North,10,3.0,6.0,100,0.00,,,0.00,1.000000,,2013-08-01 07:43:00,
2013-08-01 00:52:00,58.0,58.0,29.99,North,10,3.0,6.0,100,0.00,,,0.00,1.000000,,2013-08-01 07:52:00,
2013-08-01 00:55:00,59.0,57.0,29.99,North,1,4.0,7.0,94,0.00,,,0.00,0.000000,,2013-08-01 07:55:00,
2013-08-01 01:23:00,59.0,57.0,29.99,North,1,4.0,7.0,94,0.00,,,0.00,0.000000,,2013-08-01 08:23:00,
2013-08-01 01:35:00,59.0,57.0,29.99,North,1,4.0,7.0,94,0.00,,,0.00,0.000000,,2013-08-01 08:35:00,
2013-08-01 01:43:00,59.0,57.0,29.99,North,1,4.0,7.0,94,0.00,,,0.00,0.000000,,2013-08-01 08:43:00,
2013-08-01 02:37:00,58.0,57.0,29.99,North,359,5.0,11.0,96,0.00,,,0.00,0.000000,,2013-08-01 09:37:00,
2013-08-01 03:48:00,59.0,58.0,29.98,North,356,8.0,14.0,98,0.00,,,0.00,0.000000,,2013-08-01 10:48:00,
2013-08-01 03:55:00,58.0,57.0,29.97,North,356,5.0,12.0,98,0.00,,,0.00,0.000000,,2013-08-01 10:55:00,
2013-08-01 04:29:00,58.0,57.0,29.97,North,356,5.0,12.0,98,0.00,,,0.00,0.000000,,2013-08-01 11:29:00,
2013-08-01 04:37:00,58.0,57.0,29.97,North,356,5.0,12.0,98,0.00,,,0.00,0.000000,,2013-08-01 11:37:00,
2013-08-01 05:28:00,58.0,57.0,29.96,North,350,8.0,13.0,98,0.00,,,0.00,0.000000,,2013-08-01 12:28:00,
2013-08-01 05:35:00,58.0,57.0,29.96,North,350,8.0,13.0,98,0.00,,,0.00,0.000000,,2013-08-01 12:35:00,
2013-08-01 05:44:00,58.0,57.0,29.96,North,350,8.0,13.0,98,0.00,,,0.00,0.000000,,2013-08-01 12:44:00,
2013-08-01 05:54:00,58.0,57.0,29.96,North,350,8.0,13.0,98,0.00,,,0.00,0.000000,,2013-08-01 12:54:00,
2013-08-01 05:55:00,60.0,59.0,29.97,NE,42,4.0,12.0,97,0.00,,,0.00,0.000000,,2013-08-01 12:55:00,
2013-08-01 06:37:00,60.0,59.0,29.97,NE,42,4.0,12.0,97,0.00,,,0.00,0.000000,,2013-08-01 13:37:00,
2013-08-01 09:55:00,66.0,60.0,30.01,ESE,106,2.0,7.0,82,-99.99,,,0.00,157.000000,,2013-08-01 16:55:00,
2013-08-01 10:27:00,66.0,60.0,30.01,ESE,106,2.0,7.0,82,-99.99,,,0.00,157.000000,,2013-08-01 17:27:00,
2013-08-01 10:38:00,66.0,60.0,30.01,ESE,106,2.0,7.0,82,-99.99,,,0.00,157.000000,,2013-08-01 17:38:00,
2013-08-01 10:47:00,66.0,60.0,30.01,ESE,106,2.0,7.0,82,-99.99,,,0.00,157.000000,,2013-08-01 17:47:00,
2013-08-01 11:28:00,68.0,60.0,30.00,South,174,4.0,6.0,76,0.00,,,0.00,294.000000,,2013-08-01 18:28:00,
2013-08-01 11:46:00,68.0,60.0,30.00,South,174,4.0,6.0,76,0.00,,,0.00,294.000000,,2013-08-01 18:46:00,
2013-08-01 12:47:00,67.0,58.0,30.00,SW,230,6.0,11.0,74,0.00,,,0.00,454.000000,,2013-08-01 19:47:00,
2013-08-01 12:54:00,67.0,58.0,30.00,SW,230,6.0,11.0,74,0.00,,,0.00,454.000000,,2013-08-01 19:54:00,
2013-08-01 13:25:00,69.0,58.0,29.99,SW,227,5.0,11.0,68,0.00,,,0.00,514.000000,,2013-08-01 20:25:00,
2013-08-01 13:35:00,69.0,58.0,29.99,SW,227,5.0,11.0,68,0.00,,,0.00,514.000000,,2013-08-01 20:35:00,
2013-08-01 13:52:00,69.0,58.0,29.99,SW,227,5.0,11.0,68,0.00,,,0.00,514.000000,,2013-08-01 20:52:00,
2013-08-01 14:24:00,71.0,59.0,29.96,WSW,240,8.0,13.0,65,0.00,,,0.00,944.000000,,2013-08-01 21:24:00,
2013-08-01 14:34:00,71.0,59.0,29.96,WSW,240,8.0,13.0,65,0.00,,,0.00,944.000000,,2013-08-01 21:34:00,
2013-08-01 14:43:00,71.0,59.0,29.96,WSW,240,8.0,13.0,65,0.00,,,0.00,944.000000,,2013-08-01 21:43:00,
2013-08-01 14:53:00,71.0,59.0,29.96,WSW,240,8.0,13.0,65,0.00,,,0.00,944.000000,,2013-08-01 21:53:00,
2013-08-01 15:22:00,71.0,58.0,29.94,SW,223,7.0,16.0,63,0.00,,,0.00,969.000000,,2013-08-01 22:22:00,
2013-08-01 15:35:00,71.0,58.0,29.94,SW,223,7.0,16.0,63,0.00,,,0.00,969.000000,,2013-08-01 22:35:00,
2013-08-01 15:45:00,71.0,58.0,29.94,SW,223,7.0,16.0,63,0.00,,,0.00,969.000000,,2013-08-01 22:45:00,
2013-08-01 15:53:00,71.0,58.0,29.94,SW,223,7.0,16.0,63,0.00,,,0.00,969.000000,,2013-08-01 22:53:00,
2013-08-01 16:25:00,73.0,60.0,29.93,SSW,194,5.0,12.0,63,0.00,,,0.00,853.000000,,2013-08-01 23:25:00,
2013-08-01 16:32:00,73.0,60.0,29.93,SSW,194,5.0,12.0,63,0.00,,,0.00,853.000000,,2013-08-01 23:32:00,
2013-08-01 16:45:00,73.0,60.0,29.93,SSW,194,5.0,12.0,63,0.00,,,0.00,853.000000,,2013-08-01 23:45:00,
2013-08-01 17:25:00,73.0,60.0,29.91,SW,221,5.0,10.0,64,0.00,,,0.00,678.000000,,2013-08-02 00:25:00,
2013-08-01 17:45:00,73.0,60.0,29.91,SW,221,5.0,10.0,64,0.00,,,0.00,678.000000,,2013-08-02 00:45:00,
2013-08-01 17:53:00,73.0,60.0,29.91,SW,221,5.0,10.0,64,0.00,,,0.00,678.000000,,2013-08-02 00:53:00,
2013-08-01 18:25:00,71.0,59.0,29.90,ESE,115,3.0,11.0,67,0.00,,,0.00,478.000000,,2013-08-02 01:25:00,
2013-08-01 18:35:00,71.0,59.0,29.90,ESE,115,3.0,11.0,67,0.00,,,0.00,478.000000,,2013-08-02 01:35:00,
2013-08-01 18:44:00,71.0,59.0,29.90,ESE,115,3.0,11.0,67,0.00,,,0.00,478.000000,,2013-08-02 01:44:00,
2013-08-01 18:53:00,71.0,59.0,29.90,ESE,115,3.0,11.0,67,0.00,,,0.00,478.000000,,2013-08-02 01:53:00,
2013-08-01 19:24:00,70.0,60.0,29.89,South,180,3.0,7.0,71,0.00,,,0.00,261.000000,,2013-08-02 02:24:00,
2013-08-01 19:34:00,70.0,60.0,29.89,South,180,3.0,7.0,71,0.00,,,0.00,261.000000,,2013-08-02 02:34:00,
2013-08-01 19:44:00,70.0,60.0,29.89,South,180,3.0,7.0,71,0.00,,,0.00,261.000000,,2013-08-02 02:44:00,
2013-08-01 19:52:00,70.0,60.0,29.89,South,180,3.0,7.0,71,0.00,,,0.00,261.000000,,2013-08-02 02:52:00,
2013-08-01 20:23:00,63.0,57.0,29.89,South,169,1.0,6.0,80,0.00,,,0.00,29.000000,,2013-08-02 03:23:00,
2013-08-01 20:34:00,63.0,57.0,29.89,South,169,1.0,6.0,80,0.00,,,0.00,29.000000,,2013-08-02 03:34:00,
2013-08-01 20:45:00,63.0,57.0,29.89,South,169,1.0,6.0,80,0.00,,,0.00,29.000000,,2013-08-02 03:45:00,
2013-08-01 20:53:00,63.0,57.0,29.89,South,169,1.0,6.0,80,0.00,,,0.00,29.000000,,2013-08-02 03:53:00,
2013-08-01 21:22:00,61.0,58.0,29.89,NNE,13,4.0,6.0,90,0.00,,,0.00,1.000000,,2013-08-02 04:22:00,
2013-08-01 21:33:00,61.0,58.0,29.89,NNE,13,4.0,6.0,90,0.00,,,0.00,1.000000,,2013-08-02 04:33:00,
2013-08-01 21:43:00,61.0,58.0,29.89,NNE,13,4.0,6.0,90,0.00,,,0.00,1.000000,,2013-08-02 04:43:00,
2013-08-01 21:53:00,61.0,58.0,29.89,NNE,13,4.0,6.0,90,0.00,,,0.00,1.000000,,2013-08-02 04:53:00,
2013-08-01 22:22:00,58.0,56.0,29.90,NNE,22,4.0,8.0,94,0.00,,,0.00,0.000000,,2013-08-02 05:22:00,
2013-08-01 22:32:00,58.0,56.0,29.90,NNE,22,4.0,8.0,94,0.00,,,0.00,0.000000,,2013-08-02 05:32:00,
2013-08-01 22:43:00,58.0,56.0,29.90,NNE,22,4.0,8.0,94,0.00,,,0.00,0.000000,,2013-08-02 05:43:00,
2013-08-01 22:53:00,58.0,56.0,29.90,NNE,22,4.0,8.0,94,0.00,,,0.00,0.000000,,2013-08-02 05:53:00,
2013-08-01 23:22:00,58.0,57.0,29.91,NNE,18,5.0,8.0,95,0.00,,,0.00,0.000000,,2013-08-02 06:22:00,
2013-08-01 23:33:00,58.0,57.0,29.91,NNE,18,5.0,8.0,95,0.00,,,0.00,0.000000,,2013-08-02 06:33:00,
2013-08-01 23:43:00,58.0,57.0,29.91,NNE,18,5.0,8.0,95,0.00,,,0.00,0.000000,,2013-08-02 06:43:00,
2013-08-01 23:52:00,58.0,57.0,29.91,NNE,18,5.0,8.0,95,0.00,,,0.00,0.000000,,2013-08-02 06:52:00,